Rechercher aéroport 
image banner adimage banner adimage banner ad
image banner ad

KJMC - Commodore Center

Situé à Sausalito, United States

ICAO - JMC, IATA -

Données fournies par Airmate  

Information générale

Coordonnées: N37°52'43" W122°30'46"
Élévation : 2 feet MSL.
Variation magnétique : 16° East
Voir autres Aéroports à California

Données opérationnelles

Special qualification required
Heure actuelle UTC:
Heure actuelle locale:
Météo à : KDVO - Gnoss Field ( 30 km )
METAR: KDVO 261035Z AUTO 00000KT 10SM OVC015 16/12 A3000 RMK AO2
Voir NOTAMs / SUP AIP / TFR affectant cet aéroport [VIEW]
Fréquences de communication: [VIEW]

Pistes:

Coordonnées de l'aéroport

Adresse: Sausalito United States

Vue satellite de KJMC